KGLW/GLW METAR and TAF weather

Enter ICAO airport designator
Station Type Date Time Source
KGLW METAR 2022/09/28 19:15 UTC NOAA

KGLW 281915Z AUTO 06008KT 10SM BKN060 17/06 A3036 RMK AO2 T01700062


Station Type Date Time Source
KGLW Decoded METAR 2022/09/28 19:15 UTC NOAA

Glasgow, Glasgow Municipal Airport, KY, United States (KGLW) 37-01-54N 085-57-13W
Sep 28, 2022 - 03:15 PM EDT / 2022.09.28 1915 UTC
Wind: from the ENE (060 degrees) at 9 MPH (8 KT):0
Visibility: 10 mile(s):0
Sky conditions: mostly cloudy
Temperature: 62.6 F (17.0 C)
Dew Point: 43.2 F (6.2 C)
Relative Humidity: 48%
Pressure (altimeter): 30.36 in. Hg (1028 hPa)
ob: KGLW 281915Z AUTO 06008KT 10SM BKN060 17/06 A3036 RMK AO2 T01700062
cycle: 19

Station Type Date Time Source
KGLW TAF UTC NOAA

Error!

Example: see airport list